createdAt,value
2018-03-07T00:00:05.278Z,0.00
2018-03-07T00:01:05.196Z,0.00
2018-03-07T00:02:05.110Z,0.00
2018-03-07T00:03:05.040Z,0.00
2018-03-07T00:04:04.942Z,0.00
2018-03-07T00:05:04.856Z,0.00
2018-03-07T00:06:04.776Z,0.00
2018-03-07T00:07:04.688Z,0.00
2018-03-07T00:08:04.601Z,0.00
2018-03-07T00:09:04.518Z,0.00
2018-03-07T00:10:04.433Z,0.00
2018-03-07T00:11:04.347Z,0.00
2018-03-07T00:12:04.265Z,0.00
2018-03-07T00:13:04.179Z,0.00
2018-03-07T00:14:04.097Z,0.00
2018-03-07T00:15:04.012Z,0.00
2018-03-07T00:16:03.933Z,0.00
2018-03-07T00:17:03.877Z,0.00
2018-03-07T00:18:03.758Z,0.00
2018-03-07T00:19:03.675Z,0.00
2018-03-07T00:20:03.591Z,0.00
2018-03-07T00:21:03.501Z,0.00
2018-03-07T00:22:03.418Z,0.00
2018-03-07T00:23:03.335Z,0.00
2018-03-07T00:24:03.251Z,0.00
2018-03-07T00:25:03.166Z,0.00
2018-03-07T00:26:03.095Z,0.00
2018-03-07T00:27:03.039Z,0.00
2018-03-07T00:28:02.913Z,0.00
2018-03-07T00:29:02.827Z,0.00
2018-03-07T00:30:02.741Z,0.00
2018-03-07T00:31:02.656Z,0.00
2018-03-07T00:32:02.574Z,0.00
2018-03-07T00:33:02.489Z,0.00
2018-03-07T00:34:02.405Z,0.00
2018-03-07T00:35:02.324Z,0.00
2018-03-07T00:36:02.297Z,0.00
2018-03-07T00:37:02.153Z,0.00
2018-03-07T00:38:02.072Z,0.00
2018-03-07T00:39:01.981Z,0.00
2018-03-07T00:40:01.896Z,0.00
2018-03-07T00:41:01.811Z,0.00
2018-03-07T00:42:01.727Z,0.00
2018-03-07T00:43:01.643Z,0.00
2018-03-07T00:44:01.578Z,0.00
2018-03-07T00:45:01.471Z,0.00
2018-03-07T00:46:01.392Z,0.00
2018-03-07T00:47:01.304Z,0.00
2018-03-07T00:48:01.219Z,0.00
2018-03-07T00:49:01.133Z,0.00
2018-03-07T00:50:01.075Z,0.00
2018-03-07T00:51:00.967Z,0.00
2018-03-07T00:52:00.884Z,0.00
2018-03-07T00:53:00.797Z,0.00
2018-03-07T00:54:00.723Z,0.00
2018-03-07T00:55:00.632Z,0.00
2018-03-07T00:56:00.542Z,0.00
2018-03-07T00:57:00.457Z,0.00
2018-03-07T00:58:00.374Z,0.00
2018-03-07T00:59:00.290Z,0.00
2018-03-07T01:00:00.204Z,0.00
2018-03-07T01:01:00.120Z,0.00
2018-03-07T01:02:00.036Z,0.00
2018-03-07T01:02:59.950Z,0.00
2018-03-07T01:03:59.865Z,0.00
2018-03-07T01:04:59.783Z,0.00
2018-03-07T01:05:59.727Z,0.00
2018-03-07T01:06:59.637Z,0.00
2018-03-07T01:07:59.527Z,0.00
2018-03-07T01:08:59.446Z,0.00
2018-03-07T01:09:59.361Z,0.00
2018-03-07T01:10:59.281Z,0.00
2018-03-07T01:11:59.190Z,0.00
2018-03-07T01:12:59.103Z,0.00
2018-03-07T01:13:59.076Z,0.00
2018-03-07T01:14:58.937Z,0.00
2018-03-07T01:15:58.852Z,0.00
2018-03-07T01:16:58.766Z,0.00
2018-03-07T01:17:58.684Z,0.00
2018-03-07T01:18:58.597Z,0.00
2018-03-07T01:19:58.512Z,0.00
2018-03-07T01:20:58.430Z,0.00
2018-03-07T01:21:58.345Z,0.00
2018-03-07T01:22:58.258Z,0.00
2018-03-07T01:23:58.173Z,0.00
2018-03-07T01:24:58.092Z,0.00
2018-03-07T01:25:58.005Z,0.00
2018-03-07T01:26:57.919Z,0.00
2018-03-07T01:27:57.837Z,0.00
2018-03-07T01:28:57.753Z,0.00
2018-03-07T01:29:57.669Z,0.00
2018-03-07T01:30:57.586Z,0.00
2018-03-07T01:31:57.511Z,0.00
2018-03-07T01:32:57.414Z,0.00
2018-03-07T01:33:57.329Z,0.00
2018-03-07T01:34:57.248Z,0.00
2018-03-07T01:35:57.158Z,0.00
2018-03-07T01:36:57.079Z,0.00
2018-03-07T01:37:56.991Z,0.00
2018-03-07T01:38:56.906Z,0.00
2018-03-07T01:39:56.821Z,0.00
2018-03-07T01:40:56.737Z,0.00
2018-03-07T01:41:56.651Z,0.00
2018-03-07T01:42:56.571Z,0.00
2018-03-07T01:43:56.483Z,0.00
2018-03-07T01:44:56.396Z,0.00
2018-03-07T01:45:56.315Z,0.00
2018-03-07T01:46:56.229Z,0.00
2018-03-07T01:47:56.149Z,0.00
2018-03-07T01:48:56.060Z,0.00
2018-03-07T01:49:55.976Z,0.00
2018-03-07T01:50:55.892Z,0.00
2018-03-07T01:51:55.804Z,0.00
2018-03-07T01:52:55.722Z,0.00
2018-03-07T01:53:55.635Z,0.00
2018-03-07T01:54:55.551Z,0.00
2018-03-07T01:55:55.475Z,0.00
2018-03-07T01:56:55.384Z,0.00
2018-03-07T01:57:55.298Z,0.00
2018-03-07T01:58:55.212Z,0.00
2018-03-07T01:59:55.142Z,0.00
2018-03-07T02:00:55.046Z,0.00
2018-03-07T02:01:54.959Z,0.00
2018-03-07T02:02:54.923Z,0.00
2018-03-07T02:05:37.379Z,0.00
2018-03-07T02:06:37.246Z,0.00
2018-03-07T02:07:37.168Z,0.00
2018-03-07T02:08:37.079Z,0.00
2018-03-07T02:09:36.993Z,0.00
2018-03-07T02:10:36.905Z,0.00
2018-03-07T02:11:36.823Z,0.00
2018-03-07T02:12:36.737Z,0.00
2018-03-07T02:13:36.654Z,0.00
2018-03-07T02:14:36.569Z,0.00
2018-03-07T02:15:36.486Z,0.00
2018-03-07T02:16:36.398Z,0.00
2018-03-07T02:17:36.314Z,0.00
2018-03-07T02:18:36.229Z,0.00
2018-03-07T02:19:36.147Z,0.00
2018-03-07T02:20:36.061Z,0.00
2018-03-07T02:21:36.022Z,0.00
2018-03-07T02:22:35.892Z,0.00
2018-03-07T02:23:35.811Z,0.00
2018-03-07T02:24:35.725Z,0.00
2018-03-07T02:25:35.639Z,0.00
2018-03-07T02:26:35.569Z,0.00
2018-03-07T02:27:35.469Z,0.00
2018-03-07T02:28:35.385Z,0.00
2018-03-07T02:29:35.302Z,0.00
2018-03-07T02:30:35.221Z,0.00
2018-03-07T02:31:35.134Z,0.00
2018-03-07T02:32:35.046Z,0.00
2018-03-07T02:33:34.966Z,0.00
2018-03-07T02:34:34.891Z,0.00
2018-03-07T02:35:34.797Z,0.00
2018-03-07T02:36:34.717Z,0.00
2018-03-07T02:37:34.627Z,0.00
2018-03-07T02:38:34.540Z,0.00
2018-03-07T02:39:34.455Z,0.00
2018-03-07T02:40:34.371Z,0.00
2018-03-07T02:41:34.288Z,0.00
2018-03-07T02:42:34.204Z,0.00
2018-03-07T02:43:34.134Z,0.00
2018-03-07T02:44:34.034Z,0.00
2018-03-07T02:45:33.948Z,0.00
2018-03-07T02:46:33.862Z,0.00
2018-03-07T02:47:33.777Z,0.00
2018-03-07T02:48:33.694Z,0.00
2018-03-07T02:49:33.610Z,0.00
2018-03-07T02:50:33.525Z,0.00
2018-03-07T02:51:33.441Z,0.00
2018-03-07T02:52:33.358Z,0.00
2018-03-07T02:53:33.271Z,0.00
2018-03-07T02:54:33.186Z,0.00
2018-03-07T02:55:33.106Z,0.00
2018-03-07T02:56:33.017Z,0.00
2018-03-07T02:57:32.932Z,0.00
2018-03-07T02:58:32.850Z,0.00
2018-03-07T02:59:32.764Z,0.00
2018-03-07T03:00:32.694Z,0.00
2018-03-07T03:01:32.595Z,0.00
2018-03-07T03:02:32.514Z,0.00
2018-03-07T03:03:32.427Z,0.00
2018-03-07T03:04:32.339Z,0.00
2018-03-07T03:05:32.257Z,0.00
2018-03-07T03:06:32.171Z,0.00
2018-03-07T03:07:32.086Z,0.00
2018-03-07T03:08:32.006Z,0.00
2018-03-07T03:09:31.918Z,0.00
2018-03-07T03:10:31.833Z,0.00
2018-03-07T03:11:31.752Z,0.00
2018-03-07T03:12:31.664Z,0.00
2018-03-07T03:13:31.578Z,0.00
2018-03-07T03:14:31.494Z,0.00
2018-03-07T03:15:31.410Z,0.00
2018-03-07T03:16:31.326Z,0.00
2018-03-07T03:17:31.242Z,0.00
2018-03-07T03:18:31.155Z,0.00
2018-03-07T03:19:31.070Z,0.00
2018-03-07T03:20:30.987Z,0.00
2018-03-07T03:21:30.918Z,0.00
2018-03-07T03:22:30.818Z,0.00
2018-03-07T03:23:30.732Z,0.00
2018-03-07T03:24:30.648Z,0.00
2018-03-07T03:25:30.563Z,0.00
2018-03-07T03:26:30.478Z,0.00
2018-03-07T03:27:30.393Z,0.00
2018-03-07T03:28:30.309Z,0.00
2018-03-07T03:29:30.226Z,0.00
2018-03-07T03:30:30.141Z,0.00
2018-03-07T03:31:30.058Z,0.00
2018-03-07T03:32:29.972Z,0.00
2018-03-07T03:33:29.889Z,0.00
2018-03-07T03:34:29.807Z,0.00
2018-03-07T03:35:29.718Z,0.00
2018-03-07T03:36:29.644Z,0.00
2018-03-07T03:37:29.550Z,0.00
2018-03-07T03:38:29.463Z,0.00
2018-03-07T03:39:29.393Z,0.00
2018-03-07T03:40:29.295Z,0.00
2018-03-07T03:41:29.212Z,0.00
2018-03-07T03:42:29.127Z,0.00
2018-03-07T03:43:29.040Z,0.00
2018-03-07T03:44:28.958Z,0.00
2018-03-07T03:45:28.873Z,0.00
2018-03-07T03:46:28.787Z,0.00
2018-03-07T03:47:28.704Z,0.00
2018-03-07T03:48:28.618Z,0.00
2018-03-07T03:49:28.534Z,0.00
2018-03-07T03:50:28.449Z,0.00
2018-03-07T03:51:28.364Z,0.00
2018-03-07T03:52:28.281Z,0.00
2018-03-07T03:53:28.195Z,0.00
2018-03-07T03:54:28.113Z,0.00
2018-03-07T03:55:28.024Z,0.00
2018-03-07T03:56:27.941Z,0.00
2018-03-07T03:57:27.865Z,0.00
2018-03-07T03:58:27.775Z,0.00
2018-03-07T03:59:27.687Z,0.00
2018-03-07T04:00:27.610Z,0.00
2018-03-07T04:01:27.519Z,0.00
2018-03-07T04:02:27.434Z,0.00
2018-03-07T04:03:27.352Z,0.00
2018-03-07T04:04:27.266Z,0.00
2018-03-07T04:05:27.179Z,0.00
2018-03-07T04:06:27.096Z,0.00
2018-03-07T04:07:27.024Z,0.00
2018-03-07T04:08:26.928Z,0.00
2018-03-07T04:09:26.847Z,0.00
2018-03-07T04:10:26.758Z,0.00
2018-03-07T04:11:26.680Z,0.00
2018-03-07T04:12:26.590Z,0.00
2018-03-07T04:13:26.505Z,0.00
2018-03-07T04:14:26.421Z,0.00
2018-03-07T04:15:26.341Z,0.00
2018-03-07T04:16:26.254Z,0.00
2018-03-07T04:17:26.168Z,0.00
2018-03-07T04:18:26.098Z,0.00
2018-03-07T04:19:26.001Z,0.00
2018-03-07T04:20:25.915Z,0.00
2018-03-07T04:21:25.831Z,0.00
2018-03-07T04:22:25.758Z,0.00
2018-03-07T04:23:25.665Z,0.00
2018-03-07T04:24:25.577Z,0.00
2018-03-07T04:25:25.493Z,0.00
2018-03-07T04:26:25.410Z,0.00
2018-03-07T04:27:25.325Z,0.00
2018-03-07T04:28:25.240Z,0.00
2018-03-07T04:29:25.156Z,0.00
2018-03-07T04:30:25.073Z,0.00
2018-03-07T04:31:24.986Z,0.00
2018-03-07T04:32:24.903Z,0.00
2018-03-07T04:33:24.818Z,0.00
2018-03-07T04:34:24.744Z,0.00
2018-03-07T04:35:24.650Z,0.00
2018-03-07T04:36:24.566Z,0.00
2018-03-07T04:37:24.482Z,0.00
2018-03-07T04:38:24.396Z,0.00
2018-03-07T04:39:24.312Z,0.00
2018-03-07T04:40:24.229Z,0.00
2018-03-07T04:41:24.144Z,0.00
2018-03-07T04:42:24.061Z,0.00
2018-03-07T04:43:23.977Z,0.00
2018-03-07T04:44:23.895Z,0.00
2018-03-07T04:45:23.806Z,0.00
2018-03-07T04:46:23.725Z,0.00
2018-03-07T04:47:23.640Z,0.00
2018-03-07T04:48:23.555Z,0.00
2018-03-07T04:49:23.469Z,0.00
2018-03-07T04:50:23.386Z,0.00
2018-03-07T04:51:23.301Z,0.00
2018-03-07T04:52:23.221Z,0.00
2018-03-07T04:53:23.134Z,0.00
2018-03-07T04:54:23.053Z,0.00
2018-03-07T04:55:22.968Z,0.00
2018-03-07T04:56:22.881Z,0.00
2018-03-07T04:57:22.795Z,0.00
2018-03-07T04:58:22.712Z,0.00
2018-03-07T04:59:22.628Z,0.00
2018-03-07T05:00:22.544Z,0.00
2018-03-07T05:01:22.461Z,0.00
2018-03-07T05:02:22.375Z,0.00
2018-03-07T05:03:22.290Z,0.00
2018-03-07T05:04:22.215Z,0.00
2018-03-07T05:05:22.122Z,0.00
2018-03-07T05:06:22.038Z,0.00
2018-03-07T05:07:21.955Z,0.00
2018-03-07T05:08:21.871Z,0.00
2018-03-07T05:09:21.784Z,0.00
2018-03-07T05:10:21.702Z,0.00
2018-03-07T05:11:21.617Z,0.00
2018-03-07T05:12:21.533Z,0.00
2018-03-07T05:13:21.461Z,0.00
2018-03-07T05:14:21.363Z,0.00
2018-03-07T05:15:21.280Z,0.00
2018-03-07T05:16:21.196Z,0.00
2018-03-07T05:17:21.113Z,0.00
2018-03-07T05:18:21.029Z,0.00
2018-03-07T05:19:20.944Z,0.00
2018-03-07T05:20:20.860Z,0.00
2018-03-07T05:21:20.777Z,4.00
2018-03-07T05:22:20.699Z,4.00
2018-03-07T05:23:20.606Z,0.00
2018-03-07T05:24:20.533Z,4.00
2018-03-07T05:25:20.439Z,4.00
2018-03-07T05:26:20.362Z,4.00
2018-03-07T05:27:20.274Z,4.00
2018-03-07T05:28:20.186Z,8.00
2018-03-07T05:29:20.103Z,8.00
2018-03-07T05:30:20.020Z,12.00
2018-03-07T05:31:19.941Z,16.00
2018-03-07T05:32:19.850Z,12.00
2018-03-07T05:33:19.766Z,20.00
2018-03-07T05:34:19.683Z,24.00
2018-03-07T05:35:19.598Z,24.00
2018-03-07T05:36:19.515Z,28.00
2018-03-07T05:37:19.430Z,32.00
2018-03-07T05:38:19.360Z,40.00
2018-03-07T05:39:19.264Z,44.00
2018-03-07T05:40:19.186Z,44.00
2018-03-07T05:41:19.094Z,52.00
2018-03-07T05:42:19.010Z,60.00
2018-03-07T05:43:18.925Z,64.00
2018-03-07T05:44:18.842Z,72.00
2018-03-07T05:45:18.758Z,80.00
2018-03-07T05:46:18.673Z,88.00
2018-03-07T05:47:18.591Z,96.00
2018-03-07T05:48:18.508Z,104.00
2018-03-07T05:49:18.421Z,116.00
2018-03-07T05:50:18.337Z,124.00
2018-03-07T05:51:18.253Z,136.00
2018-03-07T05:52:18.180Z,148.00
2018-03-07T05:53:18.085Z,160.00
2018-03-07T05:54:18.000Z,172.00
2018-03-07T05:55:17.917Z,184.00
2018-03-07T05:56:17.835Z,196.00
2018-03-07T05:57:17.750Z,208.00
2018-03-07T05:58:17.665Z,220.00
2018-03-07T05:59:17.581Z,232.00
2018-03-07T06:00:17.502Z,244.00
2018-03-07T06:01:17.413Z,260.00
2018-03-07T06:02:17.328Z,276.00
2018-03-07T06:03:17.243Z,292.00
2018-03-07T06:04:17.161Z,304.00
2018-03-07T06:05:17.076Z,320.00
2018-03-07T06:06:16.994Z,332.00
2018-03-07T06:07:16.907Z,340.00
2018-03-07T06:08:16.823Z,352.00
2018-03-07T06:09:16.740Z,360.00
2018-03-07T06:10:16.654Z,364.00
2018-03-07T06:11:16.572Z,380.00
2018-03-07T06:12:16.489Z,392.00
2018-03-07T06:13:16.402Z,408.00
2018-03-07T06:14:16.319Z,424.00
2018-03-07T06:15:16.254Z,436.00
2018-03-07T06:16:16.150Z,464.00
2018-03-07T06:17:16.067Z,480.00
2018-03-07T06:18:15.986Z,508.00
2018-03-07T06:19:15.900Z,532.00
2018-03-07T06:20:15.813Z,548.00
2018-03-07T06:21:15.730Z,564.00
2018-03-07T06:22:15.644Z,592.00
2018-03-07T06:23:15.560Z,604.00
2018-03-07T06:24:15.481Z,616.00
2018-03-07T06:25:15.394Z,636.00
2018-03-07T06:26:15.312Z,660.00
2018-03-07T06:27:15.224Z,676.00
2018-03-07T06:28:15.146Z,696.00
2018-03-07T06:29:15.058Z,700.00
2018-03-07T06:30:14.973Z,716.00
2018-03-07T06:31:14.888Z,736.00
2018-03-07T06:32:14.806Z,784.00
2018-03-07T06:33:14.722Z,868.00
2018-03-07T06:34:14.636Z,896.00
2018-03-07T06:35:14.553Z,916.00
2018-03-07T06:36:14.472Z,924.00
2018-03-07T06:37:14.389Z,944.00
2018-03-07T06:38:14.300Z,948.00
2018-03-07T06:39:14.218Z,964.00
2018-03-07T06:40:14.138Z,968.00
2018-03-07T06:41:14.047Z,976.00
2018-03-07T06:42:13.966Z,1004.00
2018-03-07T06:43:13.896Z,1020.00
2018-03-07T06:44:13.800Z,1048.00
2018-03-07T06:45:13.714Z,1064.00
2018-03-07T06:46:13.630Z,1056.00
2018-03-07T06:47:13.546Z,988.00
2018-03-07T06:48:13.463Z,952.00
2018-03-07T06:49:13.390Z,948.00
2018-03-07T06:50:13.308Z,972.00
2018-03-07T06:51:13.212Z,1064.00
2018-03-07T06:52:13.125Z,1068.00
2018-03-07T06:53:13.042Z,1040.00
2018-03-07T06:54:12.961Z,1088.00
2018-03-07T06:55:12.878Z,1172.00
2018-03-07T06:56:12.792Z,1212.00
2018-03-07T06:57:12.706Z,1156.00
2018-03-07T06:58:12.633Z,1212.00
2018-03-07T06:59:12.537Z,1216.00
2018-03-07T07:00:12.455Z,1176.00
2018-03-07T07:01:12.378Z,1168.00
2018-03-07T07:02:12.292Z,1104.00
2018-03-07T07:03:12.205Z,1232.00
2018-03-07T07:04:12.120Z,1348.00
2018-03-07T07:05:12.043Z,1472.00
2018-03-07T07:06:11.955Z,1532.00
2018-03-07T07:07:11.868Z,1132.00
2018-03-07T07:08:11.783Z,1284.00
2018-03-07T07:09:11.700Z,2060.00
2018-03-07T07:10:11.632Z,1380.00
2018-03-07T07:11:11.536Z,1236.00
2018-03-07T07:12:11.447Z,1476.00
2018-03-07T07:13:11.363Z,1708.00
2018-03-07T07:14:11.278Z,1744.00
2018-03-07T07:15:11.197Z,1508.00
2018-03-07T07:16:11.112Z,1708.00
2018-03-07T07:17:11.040Z,1852.00
2018-03-07T07:18:10.948Z,1524.00
2018-03-07T07:19:10.863Z,1664.00
2018-03-07T07:20:10.779Z,1716.00
2018-03-07T07:21:10.693Z,1700.00
2018-03-07T07:22:10.669Z,1440.00
2018-03-07T07:23:10.526Z,1512.00
2018-03-07T07:24:10.492Z,1336.00
2018-03-07T07:25:10.371Z,1664.00
2018-03-07T07:26:10.296Z,1680.00
2018-03-07T07:27:10.197Z,1872.00
2018-03-07T07:28:16.966Z,2124.00
2018-03-07T07:29:10.024Z,2160.00
2018-03-07T07:30:09.943Z,1960.00
2018-03-07T07:31:12.469Z,1968.00
2018-03-07T07:32:09.777Z,2104.00
2018-03-07T07:33:09.705Z,1840.00
2018-03-07T07:34:09.651Z,1936.00
2018-03-07T07:35:09.573Z,2120.00
2018-03-07T07:36:09.508Z,1996.00
2018-03-07T07:37:09.422Z,1952.00
2018-03-07T07:38:09.328Z,2552.00
2018-03-07T07:39:09.240Z,2356.00
2018-03-07T07:40:09.160Z,1976.00
2018-03-07T07:41:10.000Z,2096.00
2018-03-07T07:42:08.996Z,2008.00
2018-03-07T07:43:08.907Z,2240.00
2018-03-07T07:44:08.784Z,2440.00
2018-03-07T07:45:08.744Z,2180.00
2018-03-07T07:46:08.656Z,2076.00
2018-03-07T07:47:08.589Z,2264.00
2018-03-07T07:48:08.497Z,2108.00
2018-03-07T07:49:08.415Z,2352.00
2018-03-07T07:50:08.340Z,2572.00
2018-03-07T07:51:08.262Z,2108.00
2018-03-07T07:52:08.171Z,2044.00
2018-03-07T07:53:08.082Z,2480.00
2018-03-07T07:54:08.538Z,2436.00
2018-03-07T07:55:07.923Z,2488.00
2018-03-07T07:56:07.818Z,2628.00
2018-03-07T07:57:07.751Z,2620.00
2018-03-07T07:58:07.671Z,2540.00
2018-03-07T07:59:07.575Z,2676.00
2018-03-07T08:00:07.509Z,3148.00
2018-03-07T08:01:07.417Z,2564.00
2018-03-07T08:02:07.329Z,2296.00
2018-03-07T08:03:07.250Z,2788.00
2018-03-07T08:04:07.168Z,2500.00
2018-03-07T08:05:07.086Z,2200.00
2018-03-07T08:06:06.992Z,2984.00
2018-03-07T08:07:06.915Z,3680.00
2018-03-07T08:08:06.834Z,3248.00
2018-03-07T08:09:06.755Z,2712.00
2018-03-07T08:10:06.669Z,2688.00
2018-03-07T08:11:06.567Z,3208.00
2018-03-07T08:12:06.544Z,4056.00
2018-03-07T08:13:06.412Z,3784.00
2018-03-07T08:14:06.326Z,2876.00
2018-03-07T08:15:06.253Z,3456.00
2018-03-07T08:16:06.166Z,3344.00
2018-03-07T08:17:06.091Z,3368.00
2018-03-07T08:18:06.584Z,2644.00
2018-03-07T08:19:05.922Z,3144.00
2018-03-07T08:20:05.828Z,3300.00
2018-03-07T08:21:06.531Z,3016.00
2018-03-07T08:22:05.676Z,2836.00
2018-03-07T08:23:05.596Z,3184.00
2018-03-07T08:24:05.494Z,2896.00
2018-03-07T08:25:06.039Z,3436.00
2018-03-07T08:26:05.331Z,3496.00
2018-03-07T08:27:05.263Z,4296.00
2018-03-07T08:28:05.173Z,4132.00
2018-03-07T08:29:05.084Z,3348.00
2018-03-07T08:30:04.992Z,3496.00
2018-03-07T08:31:04.935Z,3156.00
2018-03-07T08:32:04.838Z,3988.00
2018-03-07T08:33:04.739Z,3220.00
2018-03-07T08:34:04.692Z,3932.00
2018-03-07T08:35:04.596Z,2988.00
2018-03-07T08:36:04.508Z,3012.00
2018-03-07T08:37:04.436Z,3464.00
2018-03-07T08:38:04.331Z,3336.00
2018-03-07T08:39:04.243Z,3412.00
2018-03-07T08:40:04.194Z,2924.00
2018-03-07T08:41:04.099Z,2384.00
2018-03-07T08:42:03.998Z,2224.00
2018-03-07T08:43:03.933Z,2224.00
2018-03-07T08:44:03.882Z,2228.00
2018-03-07T08:45:03.779Z,2116.00
2018-03-07T08:46:03.700Z,2512.00
2018-03-07T08:47:03.605Z,2356.00
2018-03-07T08:48:03.515Z,2884.00
2018-03-07T08:49:03.420Z,3020.00
2018-03-07T08:50:03.369Z,2660.00
2018-03-07T08:51:03.295Z,2600.00
2018-03-07T08:52:03.180Z,2308.00
2018-03-07T08:53:03.103Z,3064.00
2018-03-07T08:54:03.517Z,3280.00
2018-03-07T08:55:02.924Z,2716.00
2018-03-07T08:56:02.875Z,2584.00
2018-03-07T08:57:02.772Z,2680.00
2018-03-07T08:58:02.685Z,3392.00
2018-03-07T08:59:02.626Z,4248.00
2018-03-07T09:00:02.546Z,3424.00
2018-03-07T09:01:02.451Z,3492.00
2018-03-07T09:02:02.372Z,3512.00
2018-03-07T09:03:02.304Z,3364.00
2018-03-07T09:04:02.201Z,3072.00
2018-03-07T09:05:02.121Z,3876.00
2018-03-07T09:06:02.040Z,5276.00
2018-03-07T09:07:01.940Z,3808.00
2018-03-07T09:08:01.882Z,3876.00
2018-03-07T09:09:01.792Z,3796.00
2018-03-07T09:10:01.719Z,3756.00
2018-03-07T09:11:01.623Z,3224.00
2018-03-07T09:12:01.560Z,2952.00
2018-03-07T09:13:01.459Z,4788.00
2018-03-07T09:14:01.390Z,4676.00
2018-03-07T09:15:01.295Z,3812.00
2018-03-07T09:16:01.226Z,2852.00
2018-03-07T09:17:01.139Z,3876.00
2018-03-07T09:18:01.049Z,3024.00
2018-03-07T09:19:01.546Z,2444.00
2018-03-07T09:20:00.867Z,2360.00
2018-03-07T09:21:00.813Z,3440.00
2018-03-07T09:22:00.708Z,4520.00
2018-03-07T09:23:00.648Z,3996.00
2018-03-07T09:24:00.561Z,3924.00
2018-03-07T09:25:00.485Z,3160.00
2018-03-07T09:26:00.375Z,4120.00
2018-03-07T09:27:00.306Z,3280.00
2018-03-07T09:28:00.222Z,3320.00
2018-03-07T09:29:01.103Z,3524.00
2018-03-07T09:30:00.066Z,4716.00
2018-03-07T09:30:59.946Z,4012.00
2018-03-07T09:31:59.897Z,4288.00
2018-03-07T09:32:59.826Z,3748.00
2018-03-07T09:33:59.743Z,3000.00
2018-03-07T09:34:59.658Z,3180.00
2018-03-07T09:35:59.570Z,3528.00
2018-03-07T09:36:59.466Z,2928.00
2018-03-07T09:37:59.405Z,3512.00
2018-03-07T09:38:59.339Z,4284.00
2018-03-07T09:40:00.066Z,4880.00
2018-03-07T09:40:59.166Z,4700.00
2018-03-07T09:41:59.081Z,4516.00
2018-03-07T09:42:59.005Z,4260.00
2018-03-07T09:43:58.914Z,5404.00
2018-03-07T09:44:58.841Z,5352.00
2018-03-07T09:45:58.759Z,4568.00
2018-03-07T09:46:58.642Z,4444.00
2018-03-07T09:47:58.569Z,4380.00
2018-03-07T09:48:58.520Z,4520.00
2018-03-07T09:49:58.435Z,5456.00
2018-03-07T09:50:58.347Z,5668.00
2018-03-07T09:51:58.244Z,4060.00
2018-03-07T09:52:58.187Z,5196.00
2018-03-07T09:53:59.069Z,5908.00
2018-03-07T09:54:58.007Z,6744.00
2018-03-07T09:55:57.941Z,7276.00
2018-03-07T09:56:57.840Z,6508.00
2018-03-07T09:57:57.758Z,6884.00
2018-03-07T09:58:57.690Z,5844.00
2018-03-07T09:59:57.589Z,5740.00
2018-03-07T10:00:57.528Z,6780.00
2018-03-07T10:01:57.493Z,5852.00
2018-03-07T10:02:57.359Z,6904.00
2018-03-07T10:03:57.277Z,7448.00
2018-03-07T10:04:57.208Z,5060.00
2018-03-07T10:05:57.107Z,4908.00
2018-03-07T10:06:57.035Z,5188.00
2018-03-07T10:07:56.975Z,4988.00
2018-03-07T10:08:56.865Z,5408.00
2018-03-07T10:09:56.801Z,4148.00
2018-03-07T10:10:56.707Z,4332.00
2018-03-07T10:11:56.627Z,4876.00
2018-03-07T10:12:56.567Z,6300.00
2018-03-07T10:13:56.480Z,4184.00
2018-03-07T10:14:56.376Z,4340.00
2018-03-07T10:15:56.290Z,4932.00
2018-03-07T10:16:56.218Z,5768.00
2018-03-07T10:17:56.156Z,5672.00
2018-03-07T10:18:56.069Z,4904.00
2018-03-07T10:19:55.988Z,4860.00
2018-03-07T10:20:55.921Z,4724.00
2018-03-07T10:21:56.560Z,5024.00
2018-03-07T10:22:55.781Z,5444.00
2018-03-07T10:23:55.678Z,4640.00
2018-03-07T10:24:55.589Z,4692.00
2018-03-07T10:25:55.512Z,4984.00
2018-03-07T10:26:55.437Z,5576.00
2018-03-07T10:27:55.359Z,5172.00
2018-03-07T10:28:55.268Z,5100.00
2018-03-07T10:29:55.200Z,5280.00
2018-03-07T10:30:56.068Z,5236.00
2018-03-07T10:31:54.998Z,5040.00
2018-03-07T10:32:54.931Z,4832.00
2018-03-07T10:33:54.889Z,5288.00
2018-03-07T10:34:54.793Z,6404.00
2018-03-07T10:35:54.708Z,4896.00
2018-03-07T10:36:54.641Z,5944.00
2018-03-07T10:37:54.533Z,5264.00
2018-03-07T10:38:54.453Z,5592.00
2018-03-07T10:39:55.039Z,5300.00
2018-03-07T10:40:54.308Z,5364.00
2018-03-07T10:41:54.258Z,5068.00
2018-03-07T10:42:54.160Z,5236.00
2018-03-07T10:43:54.035Z,5608.00
2018-03-07T10:44:53.978Z,5812.00
2018-03-07T10:45:53.909Z,6064.00
2018-03-07T10:46:53.834Z,6784.00
2018-03-07T10:47:53.756Z,6856.00
2018-03-07T10:48:53.643Z,7232.00
2018-03-07T10:49:53.601Z,8016.00
2018-03-07T10:50:53.499Z,9248.00
2018-03-07T10:51:53.440Z,10376.00
2018-03-07T10:52:53.356Z,10216.00
2018-03-07T10:53:53.263Z,11448.00
2018-03-07T10:54:53.165Z,10404.00
2018-03-07T10:55:53.098Z,9836.00
2018-03-07T10:56:53.005Z,6880.00
2018-03-07T10:57:52.943Z,6784.00
2018-03-07T10:58:52.854Z,7616.00
2018-03-07T10:59:52.779Z,8356.00
2018-03-07T11:00:52.705Z,9452.00
2018-03-07T11:01:52.645Z,8148.00
2018-03-07T11:02:52.514Z,8536.00
2018-03-07T11:03:52.476Z,11616.00
2018-03-07T11:04:52.393Z,9776.00
2018-03-07T11:05:52.281Z,10188.00
2018-03-07T11:06:52.245Z,7888.00
2018-03-07T11:07:52.158Z,9848.00
2018-03-07T11:08:52.081Z,8412.00
2018-03-07T11:09:52.005Z,5612.00
2018-03-07T11:10:51.908Z,7784.00
2018-03-07T11:11:51.826Z,5296.00
2018-03-07T11:12:52.559Z,4580.00
2018-03-07T11:13:52.562Z,4572.00
2018-03-07T11:14:51.613Z,4900.00
2018-03-07T11:15:51.517Z,5424.00
2018-03-07T11:16:51.410Z,7660.00
2018-03-07T11:17:51.332Z,6132.00
2018-03-07T11:18:51.265Z,5024.00
2018-03-07T11:19:51.206Z,6876.00
2018-03-07T11:20:51.151Z,37568.00
2018-03-07T11:21:51.065Z,7408.00
2018-03-07T11:22:50.998Z,4140.00
2018-03-07T11:23:50.918Z,5472.00
2018-03-07T11:24:50.787Z,5476.00
2018-03-07T11:25:50.750Z,6812.00
2018-03-07T11:26:50.680Z,6904.00
2018-03-07T11:27:50.570Z,8676.00
2018-03-07T11:28:50.511Z,45120.00
2018-03-07T11:29:50.417Z,74848.00
2018-03-07T11:30:50.337Z,5240.00
2018-03-07T11:31:50.307Z,7048.00
2018-03-07T11:32:50.186Z,9164.00
2018-03-07T11:33:50.086Z,16736.00
2018-03-07T11:34:50.046Z,73376.00
2018-03-07T11:35:49.917Z,72384.00
2018-03-07T11:36:49.875Z,12124.00
2018-03-07T11:37:49.769Z,28672.00
2018-03-07T11:38:49.703Z,15248.00
2018-03-07T11:39:49.689Z,28384.00
2018-03-07T11:40:49.527Z,13036.00
2018-03-07T11:41:49.510Z,7172.00
2018-03-07T11:42:49.432Z,5864.00
2018-03-07T11:43:49.354Z,4836.00
2018-03-07T11:44:49.286Z,4772.00
2018-03-07T11:45:49.168Z,5012.00
2018-03-07T11:46:49.117Z,5800.00
2018-03-07T11:47:49.049Z,4192.00
2018-03-07T11:48:48.981Z,3196.00
2018-03-07T11:49:48.888Z,2580.00
2018-03-07T11:50:48.815Z,2476.00
2018-03-07T11:51:48.740Z,2404.00
2018-03-07T11:52:48.674Z,2308.00
2018-03-07T11:53:48.581Z,2176.00
2018-03-07T11:54:48.507Z,1972.00
2018-03-07T11:55:48.432Z,1872.00
2018-03-07T11:56:48.354Z,1876.00
2018-03-07T11:57:48.279Z,1852.00
2018-03-07T11:58:48.190Z,1888.00
2018-03-07T11:59:48.115Z,2016.00
2018-03-07T12:00:48.045Z,2272.00
2018-03-07T12:01:47.978Z,2608.00
2018-03-07T12:02:47.905Z,2712.00
2018-03-07T12:03:48.625Z,2708.00
2018-03-07T12:04:48.596Z,2652.00
2018-03-07T12:05:47.655Z,2584.00
2018-03-07T12:06:47.674Z,2548.00
2018-03-07T12:07:47.496Z,2448.00
2018-03-07T12:08:47.413Z,2220.00
2018-03-07T12:09:47.338Z,2048.00
2018-03-07T12:10:47.260Z,2196.00
2018-03-07T12:11:47.154Z,2504.00
2018-03-07T12:12:47.594Z,2712.00
2018-03-07T12:13:48.601Z,2724.00
2018-03-07T12:14:47.601Z,2880.00
2018-03-07T12:15:47.596Z,2784.00
2018-03-07T12:16:46.779Z,3020.00
2018-03-07T12:17:46.705Z,3424.00
2018-03-07T12:18:46.619Z,3360.00
2018-03-07T12:19:46.559Z,3320.00
2018-03-07T12:20:46.475Z,3392.00
2018-03-07T12:21:46.385Z,3112.00
2018-03-07T12:22:47.095Z,2932.00
2018-03-07T12:23:46.221Z,2760.00
2018-03-07T12:24:46.146Z,2812.00
2018-03-07T12:25:46.070Z,2912.00
2018-03-07T12:26:45.990Z,2852.00
2018-03-07T12:27:45.909Z,2920.00
2018-03-07T12:28:45.823Z,3060.00
2018-03-07T12:29:45.754Z,3288.00
2018-03-07T12:30:45.674Z,3572.00
2018-03-07T12:31:45.588Z,4112.00
2018-03-07T12:32:46.104Z,3700.00
2018-03-07T12:33:45.416Z,3232.00
2018-03-07T12:34:45.392Z,3056.00
2018-03-07T12:35:45.262Z,2792.00
2018-03-07T12:36:46.112Z,2668.00
2018-03-07T12:37:45.111Z,2460.00
2018-03-07T12:38:45.645Z,2364.00